Time;durP1;ratioP1;P1;durP2;ratioP2;P2;SDS_P1;SDS_P2;PMS_P1;PMS_P2;Temp;Humidity;BMP_temperature;BMP_pressure;BME280_temperature;BME280_humidity;BME280_pressure;Samples;Min_cycle;Max_cycle;Signal;HPM_P1;HPM_P2
2022/10/13 00:00:28;;;;;;;2.60;0.60;;;;;;;;;;5056201;28;20063;-65
2022/10/13 00:02:54;;;;;;;3.65;0.80;;;;;;;;;;5056146;28;20056;-66
2022/10/13 00:05:21;;;;;;;2.28;0.60;;;;;;;;;;5057208;28;20059;-66
2022/10/13 00:07:48;;;;;;;2.70;0.80;;;;;;;;;;5056782;28;20088;-65
2022/10/13 00:10:14;;;;;;;2.25;0.80;;;;;;;;;;5061869;28;20063;-67
2022/10/13 00:12:41;;;;;;;2.88;0.90;;;;;;;;;;5088382;27;20460;-66
2022/10/13 00:15:08;;;;;;;4.68;0.93;;;;;;;;;;5063635;27;20033;-66
2022/10/13 00:17:35;;;;;;;3.33;0.90;;;;;;;;;;5056493;28;20044;-64
2022/10/13 00:20:02;;;;;;;2.30;0.77;;;;;;;;;;5059455;28;20051;-69
2022/10/13 00:22:29;;;;;;;4.95;1.20;;;;;;;;;;5049471;28;20052;-66
2022/10/13 00:24:55;;;;;;;5.20;0.95;;;;;;;;;;5055772;28;20063;-66
2022/10/13 00:27:22;;;;;;;3.70;1.00;;;;;;;;;;5056120;28;20041;-66
2022/10/13 00:29:49;;;;;;;2.75;0.80;;;;;;;;;;5056093;28;20181;-65
2022/10/13 00:32:15;;;;;;;2.50;0.73;;;;;;;;;;5055412;28;20544;-66
2022/10/13 00:34:42;;;;;;;4.55;0.98;;;;;;;;;;5054696;28;20040;-66
2022/10/13 00:37:08;;;;;;;2.30;0.73;;;;;;;;;;5056573;28;20044;-66
2022/10/13 00:39:36;;;;;;;5.07;0.82;;;;;;;;;;5055435;28;20036;-67
2022/10/13 00:42:03;;;;;;;3.70;0.98;;;;;;;;;;5053645;28;20501;-68
2022/10/13 00:44:49;;;;;;;4.40;1.20;;;;;;;;;;5055637;28;20036;-65
2022/10/13 00:47:16;;;;;;;3.20;0.80;;;;;;;;;;5054540;28;20480;-67
2022/10/13 00:49:42;;;;;;;4.35;0.93;;;;;;;;;;5055369;28;20060;-67
2022/10/13 00:52:09;;;;;;;5.35;0.80;;;;;;;;;;5055896;28;20040;-68
2022/10/13 00:54:35;;;;;;;2.92;0.85;;;;;;;;;;5055646;28;20044;-66
2022/10/13 00:57:03;;;;;;;6.72;0.98;;;;;;;;;;5060341;28;20040;-70
2022/10/13 00:59:30;;;;;;;6.20;1.10;;;;;;;;;;5064395;27;20047;-69
2022/10/13 01:01:59;;;;;;;10.05;1.20;;;;;;;;;;5076585;27;20094;-65
2022/10/13 01:04:27;;;;;;;4.70;1.10;;;;;;;;;;5054751;28;20044;-66
2022/10/13 01:06:55;;;;;;;3.80;0.80;;;;;;;;;;5055134;28;20049;-67
2022/10/13 01:09:22;;;;;;;8.10;1.13;;;;;;;;;;5055069;28;20697;-67
2022/10/13 01:11:59;;;;;;;3.97;0.95;;;;;;;;;;5056829;28;20041;-67
2022/10/13 01:14:35;;;;;;;6.53;1.13;;;;;;;;;;5055965;28;20040;-64
2022/10/13 01:17:05;;;;;;;3.95;1.13;;;;;;;;;;5055843;28;20159;-67
2022/10/13 01:19:38;;;;;;;4.25;1.20;;;;;;;;;;5056685;27;20051;-66
2022/10/13 01:22:23;;;;;;;6.90;1.30;;;;;;;;;;5056365;27;20044;-67
2022/10/13 01:25:13;;;;;;;8.93;1.50;;;;;;;;;;5055747;27;20048;-66
2022/10/13 01:27:52;;;;;;;5.88;2.17;;;;;;;;;;5053376;27;20044;-64
2022/10/13 01:30:19;;;;;;;5.93;1.80;;;;;;;;;;5054921;27;20114;-67
2022/10/13 01:32:52;;;;;;;8.38;2.20;;;;;;;;;;5053533;28;20432;-66
2022/10/13 01:35:19;;;;;;;8.55;1.65;;;;;;;;;;5055839;27;20041;-67
2022/10/13 01:37:54;;;;;;;7.05;1.70;;;;;;;;;;5054771;27;20052;-67
2022/10/13 01:40:26;;;;;;;5.68;1.50;;;;;;;;;;5054468;27;20416;-66
2022/10/13 01:42:55;;;;;;;5.85;1.55;;;;;;;;;;5054669;27;20048;-68
2022/10/13 01:45:28;;;;;;;9.15;1.88;;;;;;;;;;5054474;27;20056;-68
2022/10/13 01:47:55;;;;;;;8.63;1.80;;;;;;;;;;5055951;27;20090;-67
2022/10/13 01:50:22;;;;;;;9.02;1.85;;;;;;;;;;5054114;27;20040;-67
2022/10/13 01:52:49;;;;;;;5.35;1.60;;;;;;;;;;5054619;27;20167;-67
2022/10/13 01:55:16;;;;;;;9.45;1.65;;;;;;;;;;5054820;27;20103;-67
2022/10/13 01:57:44;;;;;;;5.18;1.50;;;;;;;;;;5054439;27;20417;-66
2022/10/13 02:00:15;;;;;;;6.00;1.60;;;;;;;;;;5086728;27;20024;-67
2022/10/13 02:03:00;;;;;;;5.90;1.55;;;;;;;;;;5053065;27;20128;-68
2022/10/13 02:05:39;;;;;;;8.15;1.75;;;;;;;;;;5054523;27;20044;-67
2022/10/13 02:08:26;;;;;;;13.38;1.92;;;;;;;;;;5044811;28;20041;-68
2022/10/13 02:11:09;;;;;;;13.50;2.08;;;;;;;;;;5054681;27;20033;-67
2022/10/13 02:13:37;;;;;;;8.73;2.10;;;;;;;;;;5044006;27;20550;-66
2022/10/13 02:16:03;;;;;;;9.63;2.00;;;;;;;;;;5052629;28;20501;-66
2022/10/13 02:18:34;;;;;;;9.70;2.33;;;;;;;;;;5053335;27;21724;-67
2022/10/13 02:21:02;;;;;;;10.35;1.88;;;;;;;;;;5054639;27;20036;-68
2022/10/13 02:23:29;;;;;;;8.82;1.73;;;;;;;;;;5053738;27;20412;-67
2022/10/13 02:25:57;;;;;;;9.98;2.10;;;;;;;;;;5054089;27;20041;-69
2022/10/13 02:28:24;;;;;;;9.57;2.10;;;;;;;;;;5069504;27;20037;-68
2022/10/13 02:30:51;;;;;;;10.50;2.45;;;;;;;;;;5054579;27;20082;-67
2022/10/13 02:33:17;;;;;;;10.02;2.63;;;;;;;;;;5056128;27;20040;-67
2022/10/13 02:35:47;;;;;;;17.50;3.20;;;;;;;;;;5053548;27;20060;-68
2022/10/13 02:38:14;;;;;;;12.05;3.13;;;;;;;;;;5054639;27;20045;-66
2022/10/13 02:40:40;;;;;;;16.95;3.00;;;;;;;;;;5053736;27;20056;-66
2022/10/13 02:43:07;;;;;;;12.85;3.10;;;;;;;;;;5054862;27;20044;-66
2022/10/13 02:45:34;;;;;;;13.20;2.88;;;;;;;;;;5055903;27;20578;-66
2022/10/13 02:48:00;;;;;;;11.60;2.55;;;;;;;;;;5059080;27;20119;-67
2022/10/13 02:50:27;;;;;;;12.10;3.35;;;;;;;;;;5056453;27;20804;-66
2022/10/13 02:52:53;;;;;;;14.23;3.00;;;;;;;;;;5057130;27;20333;-67
2022/10/13 02:55:20;;;;;;;9.18;2.55;;;;;;;;;;5058863;27;21719;-67
2022/10/13 02:57:47;;;;;;;9.93;2.50;;;;;;;;;;5058998;27;20157;-68
2022/10/13 03:00:15;;;;;;;13.50;2.63;;;;;;;;;;5057186;28;20775;-67
2022/10/13 03:02:41;;;;;;;9.82;2.58;;;;;;;;;;5058256;27;20048;-69
2022/10/13 03:05:08;;;;;;;14.90;2.55;;;;;;;;;;5060244;27;20505;-69
2022/10/13 03:07:35;;;;;;;7.72;2.60;;;;;;;;;;5047633;27;20037;-66
2022/10/13 03:10:01;;;;;;;11.73;2.75;;;;;;;;;;5058374;27;20504;-65
2022/10/13 03:12:28;;;;;;;7.20;2.30;;;;;;;;;;5058116;27;20131;-68
2022/10/13 03:14:54;;;;;;;18.52;3.15;;;;;;;;;;5059546;27;20037;-66
2022/10/13 03:17:21;;;;;;;11.68;2.58;;;;;;;;;;5068174;27;20125;-69
2022/10/13 03:19:48;;;;;;;15.13;2.28;;;;;;;;;;5055344;27;20035;-67
2022/10/13 03:22:14;;;;;;;10.70;2.13;;;;;;;;;;5057848;27;20045;-64
2022/10/13 03:24:41;;;;;;;19.60;3.28;;;;;;;;;;5056765;27;20045;-66
2022/10/13 03:27:10;;;;;;;9.10;2.33;;;;;;;;;;5057584;27;20407;-66
2022/10/13 03:29:37;;;;;;;11.50;2.03;;;;;;;;;;5056390;27;20051;-65
2022/10/13 03:32:04;;;;;;;11.00;2.50;;;;;;;;;;5057448;27;20094;-66
2022/10/13 03:34:31;;;;;;;11.98;2.50;;;;;;;;;;5056710;27;20041;-66
2022/10/13 03:36:57;;;;;;;7.47;2.20;;;;;;;;;;5058800;27;20085;-66
2022/10/13 03:39:24;;;;;;;11.88;2.03;;;;;;;;;;5056958;27;20225;-68
2022/10/13 03:41:51;;;;;;;7.00;1.95;;;;;;;;;;5057037;27;20760;-66
2022/10/13 03:44:17;;;;;;;7.88;2.30;;;;;;;;;;5056980;27;20057;-68
2022/10/13 03:46:44;;;;;;;10.30;2.10;;;;;;;;;;5077235;27;20611;-66
2022/10/13 03:49:11;;;;;;;6.40;2.13;;;;;;;;;;5061511;27;20128;-68
2022/10/13 03:51:38;;;;;;;7.55;2.20;;;;;;;;;;5056074;28;20043;-66
2022/10/13 03:54:05;;;;;;;5.47;2.17;;;;;;;;;;5057297;28;20175;-66
2022/10/13 03:56:31;;;;;;;5.82;2.25;;;;;;;;;;5055661;28;20456;-66
2022/10/13 03:58:59;;;;;;;7.75;2.28;;;;;;;;;;5056270;28;20055;-68
2022/10/13 04:01:27;;;;;;;10.52;2.25;;;;;;;;;;5046656;28;20117;-65
2022/10/13 04:03:54;;;;;;;9.05;2.22;;;;;;;;;;5067086;28;20052;-67
2022/10/13 04:06:21;;;;;;;5.35;2.10;;;;;;;;;;5056704;27;20926;-66
2022/10/13 04:08:48;;;;;;;7.35;2.65;;;;;;;;;;5055489;28;20497;-66
2022/10/13 04:11:15;;;;;;;6.70;2.00;;;;;;;;;;5056487;28;20040;-66
2022/10/13 04:13:42;;;;;;;7.15;2.08;;;;;;;;;;5053920;28;20059;-66
2022/10/13 04:16:12;;;;;;;8.57;2.10;;;;;;;;;;5056915;28;20033;-65
2022/10/13 04:18:38;;;;;;;12.70;2.03;;;;;;;;;;5056335;28;20106;-66
2022/10/13 04:21:09;;;;;;;6.18;2.08;;;;;;;;;;5056718;28;20083;-67
2022/10/13 04:23:36;;;;;;;6.78;2.42;;;;;;;;;;5056111;28;20504;-64
2022/10/13 04:26:03;;;;;;;8.75;2.05;;;;;;;;;;5056721;28;20040;-65
2022/10/13 04:28:32;;;;;;;8.02;2.42;;;;;;;;;;5055181;28;20037;-66
2022/10/13 04:30:59;;;;;;;9.95;3.00;;;;;;;;;;5055839;28;20053;-66
2022/10/13 04:33:26;;;;;;;12.30;2.40;;;;;;;;;;5055074;28;20062;-67
2022/10/13 04:35:52;;;;;;;8.82;2.42;;;;;;;;;;5055844;28;20040;-66
2022/10/13 04:38:19;;;;;;;9.48;2.20;;;;;;;;;;5056367;28;20063;-67
2022/10/13 04:40:46;;;;;;;10.25;2.42;;;;;;;;;;5055626;28;20047;-67
2022/10/13 04:43:14;;;;;;;6.15;2.38;;;;;;;;;;5072073;28;20080;-67
2022/10/13 04:45:41;;;;;;;7.47;2.85;;;;;;;;;;5055513;28;20044;-65
2022/10/13 04:48:07;;;;;;;11.00;2.58;;;;;;;;;;5056814;28;20052;-66
2022/10/13 04:50:34;;;;;;;10.05;2.40;;;;;;;;;;5054471;28;20040;-67
2022/10/13 04:53:01;;;;;;;7.53;2.30;;;;;;;;;;5056404;28;20040;-67
2022/10/13 04:55:27;;;;;;;7.47;2.72;;;;;;;;;;5056333;28;20114;-67
2022/10/13 04:57:54;;;;;;;9.93;2.55;;;;;;;;;;5057046;28;20037;-66
2022/10/13 05:00:21;;;;;;;7.25;2.20;;;;;;;;;;5057759;28;20049;-67
2022/10/13 05:02:47;;;;;;;8.45;2.42;;;;;;;;;;5060010;28;20052;-65
2022/10/13 05:05:14;;;;;;;6.53;2.60;;;;;;;;;;5059299;28;20294;-66
2022/10/13 05:07:41;;;;;;;6.28;2.28;;;;;;;;;;5057398;28;20439;-65
2022/10/13 05:10:07;;;;;;;5.45;2.10;;;;;;;;;;5055136;28;20044;-66
2022/10/13 05:12:34;;;;;;;8.50;2.78;;;;;;;;;;5069759;28;20040;-67
2022/10/13 05:15:01;;;;;;;6.65;2.63;;;;;;;;;;5055913;28;20041;-64
2022/10/13 05:17:30;;;;;;;10.65;3.60;;;;;;;;;;5054387;28;20123;-65
2022/10/13 05:19:57;;;;;;;7.57;2.75;;;;;;;;;;5055803;28;20064;-66
2022/10/13 05:22:23;;;;;;;8.50;2.67;;;;;;;;;;5053733;28;20491;-66
2022/10/13 05:24:50;;;;;;;10.25;3.00;;;;;;;;;;5054834;28;20037;-66
2022/10/13 05:27:17;;;;;;;12.98;2.55;;;;;;;;;;5055441;28;20056;-65
2022/10/13 05:29:43;;;;;;;7.20;2.40;;;;;;;;;;5054549;28;20039;-66
2022/10/13 05:32:10;;;;;;;11.57;2.70;;;;;;;;;;5054644;28;20186;-65
2022/10/13 05:34:36;;;;;;;11.07;2.90;;;;;;;;;;5076334;28;20116;-66
2022/10/13 05:37:03;;;;;;;9.38;2.67;;;;;;;;;;5055417;28;20472;-65
2022/10/13 05:39:30;;;;;;;8.90;2.35;;;;;;;;;;5054000;28;20051;-66
2022/10/13 05:41:56;;;;;;;15.82;2.88;;;;;;;;;;5053283;28;20101;-67
2022/10/13 05:44:23;;;;;;;7.30;2.53;;;;;;;;;;5054120;28;20032;-66
2022/10/13 05:46:50;;;;;;;11.55;2.78;;;;;;;;;;5054760;28;20037;-65
2022/10/13 05:49:16;;;;;;;8.93;2.60;;;;;;;;;;5055419;28;20143;-67
2022/10/13 05:51:45;;;;;;;9.05;2.55;;;;;;;;;;5063207;27;20069;-67
2022/10/13 05:54:45;;;;;;;8.13;2.25;;;;;;;;;;5067224;27;20628;-66
2022/10/13 05:57:23;;;;;;;4.55;2.10;;;;;;;;;;4998038;28;20059;-66
2022/10/13 05:59:54;;;;;;;10.27;2.60;;;;;;;;;;5054439;27;20045;-65
2022/10/13 06:02:22;;;;;;;11.95;2.65;;;;;;;;;;5053425;27;20489;-66
2022/10/13 06:04:50;;;;;;;12.73;2.92;;;;;;;;;;5055620;27;20040;-66
2022/10/13 06:07:17;;;;;;;12.10;2.90;;;;;;;;;;5054322;27;20151;-67
2022/10/13 06:09:43;;;;;;;6.05;2.17;;;;;;;;;;5053825;27;20880;-66
2022/10/13 06:12:10;;;;;;;9.65;2.65;;;;;;;;;;5054019;27;20078;-66
2022/10/13 06:14:37;;;;;;;7.15;2.20;;;;;;;;;;5055123;27;20063;-66
2022/10/13 06:17:03;;;;;;;9.13;2.13;;;;;;;;;;5053827;27;20089;-67
2022/10/13 06:19:30;;;;;;;11.00;2.70;;;;;;;;;;5054059;27;20040;-66
2022/10/13 06:21:56;;;;;;;8.93;2.53;;;;;;;;;;5057812;27;20039;-66
2022/10/13 06:24:23;;;;;;;9.68;2.10;;;;;;;;;;5058388;27;20303;-65
2022/10/13 06:26:50;;;;;;;7.75;2.42;;;;;;;;;;5058343;27;20036;-65
2022/10/13 06:29:16;;;;;;;7.82;2.60;;;;;;;;;;5058444;27;20048;-68
2022/10/13 06:31:43;;;;;;;8.25;2.30;;;;;;;;;;5071745;27;20141;-65
2022/10/13 06:34:09;;;;;;;10.95;2.72;;;;;;;;;;5059028;27;20089;-65
2022/10/13 06:36:37;;;;;;;11.10;2.55;;;;;;;;;;5058432;27;20041;-65
2022/10/13 06:39:03;;;;;;;7.32;2.35;;;;;;;;;;5058406;27;20036;-65
2022/10/13 06:41:30;;;;;;;10.18;2.30;;;;;;;;;;5056035;27;20044;-66
2022/10/13 06:43:57;;;;;;;9.27;2.60;;;;;;;;;;5057817;27;20396;-66
2022/10/13 06:46:23;;;;;;;10.68;2.35;;;;;;;;;;5058710;27;20123;-65
2022/10/13 06:48:50;;;;;;;9.57;2.33;;;;;;;;;;5058269;27;20055;-67
2022/10/13 06:51:17;;;;;;;6.15;2.20;;;;;;;;;;5058871;27;20669;-66
2022/10/13 06:53:43;;;;;;;8.38;2.28;;;;;;;;;;5059851;27;20486;-66
2022/10/13 06:56:10;;;;;;;4.95;1.85;;;;;;;;;;5059211;27;20033;-65
2022/10/13 06:58:37;;;;;;;7.72;1.88;;;;;;;;;;5058095;27;20090;-66
2022/10/13 07:01:05;;;;;;;6.07;2.15;;;;;;;;;;5058088;27;20120;-66
2022/10/13 07:03:31;;;;;;;10.73;2.10;;;;;;;;;;5072790;27;20188;-66
2022/10/13 07:06:02;;;;;;;6.85;2.10;;;;;;;;;;5058112;27;20032;-65
2022/10/13 07:08:28;;;;;;;5.95;2.20;;;;;;;;;;5057425;27;20188;-67
2022/10/13 07:10:55;;;;;;;6.05;2.15;;;;;;;;;;5056241;27;20097;-68
2022/10/13 07:13:22;;;;;;;9.10;2.25;;;;;;;;;;5057392;27;20044;-66
2022/10/13 07:15:48;;;;;;;4.20;1.50;;;;;;;;;;5056897;27;20098;-66
2022/10/13 07:18:15;;;;;;;4.40;1.73;;;;;;;;;;5057736;27;21853;-66
2022/10/13 07:20:41;;;;;;;5.03;1.85;;;;;;;;;;5056714;27;20055;-66
2022/10/13 07:23:08;;;;;;;7.47;1.88;;;;;;;;;;5057178;27;20489;-66
2022/10/13 07:25:35;;;;;;;5.28;2.00;;;;;;;;;;5056495;27;20385;-66
2022/10/13 07:28:01;;;;;;;6.65;1.85;;;;;;;;;;5057042;27;20044;-67
2022/10/13 07:30:28;;;;;;;7.35;2.38;;;;;;;;;;5055808;27;20075;-65
2022/10/13 07:32:54;;;;;;;5.47;1.95;;;;;;;;;;5057148;27;20037;-67
2022/10/13 07:35:24;;;;;;;8.15;2.20;;;;;;;;;;5046596;28;20405;-66
2022/10/13 07:37:52;;;;;;;5.53;1.90;;;;;;;;;;5055157;28;20036;-65
2022/10/13 07:40:19;;;;;;;6.63;2.35;;;;;;;;;;5056185;27;20045;-65
2022/10/13 07:42:46;;;;;;;7.15;2.38;;;;;;;;;;5056857;27;20048;-67
2022/10/13 07:45:12;;;;;;;5.85;2.20;;;;;;;;;;5056995;27;20064;-66
2022/10/13 07:47:39;;;;;;;6.80;2.40;;;;;;;;;;5056760;27;21655;-65
2022/10/13 07:50:05;;;;;;;12.38;2.15;;;;;;;;;;5056276;27;20049;-65
2022/10/13 07:52:35;;;;;;;6.68;2.58;;;;;;;;;;5056546;27;20033;-66
2022/10/13 07:55:01;;;;;;;5.18;2.15;;;;;;;;;;5056785;27;20494;-66
2022/10/13 07:57:28;;;;;;;9.95;2.45;;;;;;;;;;5055432;27;20063;-64
2022/10/13 07:59:55;;;;;;;9.77;2.42;;;;;;;;;;5055943;27;20041;-63
2022/10/13 08:02:21;;;;;;;8.48;2.33;;;;;;;;;;5055666;27;20126;-66
2022/10/13 08:04:48;;;;;;;7.28;2.53;;;;;;;;;;5055321;27;20040;-65
2022/10/13 08:07:15;;;;;;;5.85;2.17;;;;;;;;;;5056831;27;20045;-63
2022/10/13 08:09:42;;;;;;;9.50;2.53;;;;;;;;;;5056171;27;20102;-65
2022/10/13 08:12:12;;;;;;;11.00;2.45;;;;;;;;;;5055855;27;20036;-67
2022/10/13 08:14:38;;;;;;;9.20;2.15;;;;;;;;;;5055383;27;20040;-65
2022/10/13 08:17:05;;;;;;;4.03;2.00;;;;;;;;;;5056999;27;20041;-65
2022/10/13 08:19:32;;;;;;;5.40;1.95;;;;;;;;;;5055449;27;20551;-65
2022/10/13 08:21:58;;;;;;;5.43;2.28;;;;;;;;;;5055956;27;20957;-65
2022/10/13 08:24:25;;;;;;;9.52;1.83;;;;;;;;;;5055985;27;20413;-65
2022/10/13 08:26:51;;;;;;;7.05;2.72;;;;;;;;;;5056446;27;20040;-65
2022/10/13 08:29:18;;;;;;;6.45;2.25;;;;;;;;;;5044512;28;20061;-67
2022/10/13 08:31:45;;;;;;;7.32;2.53;;;;;;;;;;5062501;27;20036;-65
2022/10/13 08:34:11;;;;;;;6.18;2.25;;;;;;;;;;5057723;28;20041;-65
2022/10/13 08:36:38;;;;;;;9.18;2.35;;;;;;;;;;5055045;28;20119;-66
2022/10/13 08:39:05;;;;;;;6.43;2.30;;;;;;;;;;5056826;28;20071;-65
2022/10/13 08:41:35;;;;;;;5.93;2.13;;;;;;;;;;5054680;28;20044;-66
2022/10/13 08:44:07;;;;;;;10.13;2.53;;;;;;;;;;5058036;28;20048;-66
2022/10/13 08:46:46;;;;;;;6.88;2.53;;;;;;;;;;5074753;27;20040;-65
2022/10/13 08:49:14;;;;;;;6.88;2.50;;;;;;;;;;5074762;27;20077;-66
2022/10/13 08:51:41;;;;;;;4.72;2.20;;;;;;;;;;5055205;27;20535;-66
2022/10/13 08:54:10;;;;;;;7.60;2.55;;;;;;;;;;5064324;27;20075;-66
2022/10/13 08:56:37;;;;;;;6.57;2.45;;;;;;;;;;5055733;28;20044;-69
2022/10/13 08:59:05;;;;;;;5.97;2.33;;;;;;;;;;5055690;28;20039;-65
2022/10/13 09:01:34;;;;;;;6.78;2.25;;;;;;;;;;5053954;28;20032;-65
2022/10/13 09:04:15;;;;;;;6.28;2.30;;;;;;;;;;5055374;28;20068;-66
2022/10/13 09:07:00;;;;;;;6.53;2.50;;;;;;;;;;5055555;28;20064;-65
2022/10/13 09:09:26;;;;;;;9.77;2.80;;;;;;;;;;5061135;27;20443;-65
2022/10/13 09:11:53;;;;;;;8.63;2.75;;;;;;;;;;5071650;27;20766;-65
2022/10/13 09:14:22;;;;;;;4.80;2.20;;;;;;;;;;5055385;27;20056;-66
2022/10/13 09:16:49;;;;;;;5.82;2.25;;;;;;;;;;5055272;28;20037;-65
2022/10/13 09:19:19;;;;;;;5.20;2.08;;;;;;;;;;5055366;28;20071;-66
2022/10/13 09:21:46;;;;;;;5.10;2.05;;;;;;;;;;5054343;28;20032;-65
2022/10/13 09:24:15;;;;;;;5.20;2.30;;;;;;;;;;5055027;28;20084;-65
2022/10/13 09:26:42;;;;;;;7.28;2.38;;;;;;;;;;5053912;28;20032;-65
2022/10/13 09:29:24;;;;;;;6.85;2.33;;;;;;;;;;5055485;28;20089;-66
2022/10/13 09:31:54;;;;;;;6.10;2.70;;;;;;;;;;5054543;28;20047;-66
2022/10/13 09:34:21;;;;;;;5.60;2.30;;;;;;;;;;5054545;28;20109;-65
2022/10/13 09:36:58;;;;;;;7.05;2.47;;;;;;;;;;5064563;28;20493;-65
2022/10/13 09:39:25;;;;;;;6.72;2.40;;;;;;;;;;5055134;28;20416;-66
2022/10/13 09:41:52;;;;;;;5.20;2.00;;;;;;;;;;5070024;28;20770;-66
2022/10/13 09:44:29;;;;;;;6.30;2.20;;;;;;;;;;5055274;28;20056;-67
2022/10/13 09:46:58;;;;;;;6.32;2.10;;;;;;;;;;5055503;28;20506;-68
2022/10/13 09:49:38;;;;;;;4.95;2.15;;;;;;;;;;5054260;28;20051;-67
2022/10/13 09:52:25;;;;;;;5.65;2.30;;;;;;;;;;5055645;28;20051;-67
2022/10/13 09:54:53;;;;;;;9.00;2.30;;;;;;;;;;5054260;28;20040;-66
2022/10/13 09:57:23;;;;;;;5.18;2.03;;;;;;;;;;5055034;28;20124;-67
2022/10/13 09:59:58;;;;;;;5.30;1.90;;;;;;;;;;5054720;28;20596;-66
2022/10/13 10:02:33;;;;;;;4.90;1.92;;;;;;;;;;5054924;28;20044;-65
2022/10/13 10:05:05;;;;;;;7.85;2.03;;;;;;;;;;5055128;28;20072;-64
2022/10/13 10:07:32;;;;;;;6.47;2.00;;;;;;;;;;5054484;28;20037;-65
2022/10/13 10:10:34;;;;;;;6.97;2.05;;;;;;;;;;5054320;28;20600;-66
2022/10/13 10:13:01;;;;;;;5.97;2.25;;;;;;;;;;5026965;28;20398;-65
2022/10/13 10:15:48;;;;;;;8.02;2.45;;;;;;;;;;5054975;27;20033;-65
2022/10/13 10:18:20;;;;;;;8.02;2.17;;;;;;;;;;5028828;28;20128;-65
2022/10/13 10:20:54;;;;;;;4.90;2.08;;;;;;;;;;5054128;28;20037;-65
2022/10/13 10:23:59;;;;;;;8.13;2.33;;;;;;;;;;5055236;28;20052;-66
2022/10/13 10:26:33;;;;;;;4.20;1.98;;;;;;;;;;5008728;28;20060;-65
2022/10/13 10:29:11;;;;;;;4.40;1.45;;;;;;;;;;5010988;28;20079;-66
2022/10/13 10:31:38;;;;;;;3.65;1.58;;;;;;;;;;5027139;27;20052;-65
2022/10/13 10:34:14;;;;;;;4.70;1.85;;;;;;;;;;5054504;27;20094;-66
2022/10/13 10:36:44;;;;;;;5.22;1.65;;;;;;;;;;5054630;27;20522;-65
2022/10/13 10:39:20;;;;;;;6.32;1.33;;;;;;;;;;5055115;27;20115;-64
2022/10/13 10:41:53;;;;;;;4.78;1.45;;;;;;;;;;5052987;27;20055;-67
2022/10/13 10:44:22;;;;;;;3.38;1.30;;;;;;;;;;5052715;27;20514;-65
2022/10/13 10:46:49;;;;;;;5.90;1.55;;;;;;;;;;5053131;28;20036;-64
2022/10/13 10:49:18;;;;;;;5.95;1.63;;;;;;;;;;5055181;27;20124;-65
2022/10/13 10:51:45;;;;;;;5.32;1.85;;;;;;;;;;5054512;27;20123;-65
2022/10/13 10:54:30;;;;;;;3.70;1.60;;;;;;;;;;5043973;28;20079;-67
2022/10/13 10:57:11;;;;;;;3.80;1.33;;;;;;;;;;5053678;27;20523;-66
2022/10/13 10:59:40;;;;;;;6.55;1.50;;;;;;;;;;5069404;27;20040;-64
2022/10/13 11:02:07;;;;;;;7.57;1.50;;;;;;;;;;5054891;27;20056;-65
2022/10/13 11:04:34;;;;;;;5.90;1.85;;;;;;;;;;5053158;27;20057;-65
2022/10/13 11:07:01;;;;;;;5.18;1.60;;;;;;;;;;5046250;28;20036;-66
2022/10/13 11:09:43;;;;;;;4.60;1.70;;;;;;;;;;5056384;27;20033;-64
2022/10/13 11:12:19;;;;;;;4.72;1.52;;;;;;;;;;5073470;27;20052;-65
2022/10/13 11:14:46;;;;;;;4.70;1.45;;;;;;;;;;5058456;27;20455;-66
2022/10/13 11:17:17;;;;;;;8.00;1.48;;;;;;;;;;5067162;27;20468;-66
2022/10/13 11:19:45;;;;;;;4.45;1.67;;;;;;;;;;5057747;27;20036;-64
2022/10/13 11:22:13;;;;;;;5.03;1.90;;;;;;;;;;5059033;27;20631;-64
2022/10/13 11:24:42;;;;;;;4.05;1.67;;;;;;;;;;5057103;27;20055;-65
2022/10/13 11:27:09;;;;;;;5.32;1.52;;;;;;;;;;5056445;28;20499;-64
2022/10/13 11:32:29;;;;;;;6.22;1.80;;;;;;;;;;5057397;27;20044;-66
2022/10/13 11:34:59;;;;;;;4.63;1.60;;;;;;;;;;5054941;28;20166;-64
2022/10/13 11:37:47;;;;;;;5.75;1.50;;;;;;;;;;5056627;27;20158;-66
2022/10/13 11:40:33;;;;;;;7.75;1.60;;;;;;;;;;5042202;27;20109;-65
2022/10/13 11:43:22;;;;;;;9.98;2.00;;;;;;;;;;5056217;27;20539;-65
2022/10/13 11:45:52;;;;;;;5.28;1.90;;;;;;;;;;5056373;27;20158;-66
2022/10/13 11:48:37;;;;;;;6.18;1.60;;;;;;;;;;5057155;27;20040;-66
2022/10/13 11:51:04;;;;;;;4.70;1.90;;;;;;;;;;5046573;28;20944;-65
2022/10/13 11:53:49;;;;;;;6.80;2.22;;;;;;;;;;5067139;27;20058;-66
2022/10/13 11:56:31;;;;;;;6.90;1.67;;;;;;;;;;5044809;28;20400;-65
2022/10/13 11:58:58;;;;;;;8.95;2.10;;;;;;;;;;5056296;27;20117;-65
2022/10/13 12:01:25;;;;;;;5.32;1.65;;;;;;;;;;5056162;27;20393;-66
2022/10/13 12:03:51;;;;;;;8.85;1.58;;;;;;;;;;5056582;27;20493;-66
2022/10/13 12:06:35;;;;;;;11.60;1.98;;;;;;;;;;5056006;27;20044;-66
2022/10/13 12:09:03;;;;;;;5.97;1.60;;;;;;;;;;5055583;27;20535;-66
2022/10/13 12:11:36;;;;;;;7.28;1.63;;;;;;;;;;5071329;27;20086;-64
2022/10/13 12:14:03;;;;;;;4.03;1.52;;;;;;;;;;5047026;28;20673;-67
2022/10/13 12:16:30;;;;;;;7.20;1.83;;;;;;;;;;5054404;27;20141;-65
2022/10/13 12:19:07;;;;;;;3.95;1.65;;;;;;;;;;5056391;27;20610;-64
2022/10/13 12:21:34;;;;;;;7.88;1.50;;;;;;;;;;5056225;27;20047;-66
2022/10/13 12:24:08;;;;;;;6.53;1.63;;;;;;;;;;5057250;27;20135;-64
2022/10/13 12:26:35;;;;;;;7.85;1.65;;;;;;;;;;5056322;27;20106;-64
2022/10/13 12:29:02;;;;;;;7.15;1.45;;;;;;;;;;5056042;27;20060;-65
2022/10/13 12:31:39;;;;;;;10.13;1.55;;;;;;;;;;5055295;27;20040;-65
2022/10/13 12:34:30;;;;;;;5.60;1.60;;;;;;;;;;5055677;27;20040;-65
2022/10/13 12:37:05;;;;;;;5.80;1.50;;;;;;;;;;5055516;27;20045;-67
2022/10/13 12:39:33;;;;;;;4.55;1.35;;;;;;;;;;5055156;27;20040;-64
2022/10/13 12:42:01;;;;;;;4.22;1.60;;;;;;;;;;5055581;27;20177;-65
2022/10/13 12:44:30;;;;;;;5.15;1.73;;;;;;;;;;5054312;27;20078;-65
2022/10/13 12:47:02;;;;;;;6.90;1.48;;;;;;;;;;5056055;27;20515;-65
2022/10/13 12:49:36;;;;;;;5.95;1.58;;;;;;;;;;5053577;27;20048;-66
2022/10/13 12:52:02;;;;;;;;;;;;;;;;;;5056565;27;20041;-65
2022/10/13 12:54:30;;;;;;;5.20;1.50;;;;;;;;;;5054672;27;19916;-66
2022/10/13 12:56:58;;;;;;;3.33;1.23;;;;;;;;;;5050180;27;20068;-64
2022/10/13 12:59:26;;;;;;;4.78;1.13;;;;;;;;;;5055354;27;20044;-65
2022/10/13 13:01:54;;;;;;;6.20;1.42;;;;;;;;;;5055843;27;20040;-65
2022/10/13 13:04:23;;;;;;;4.82;1.40;;;;;;;;;;5049679;27;20147;-68
2022/10/13 13:06:55;;;;;;;2.97;1.10;;;;;;;;;;5057165;27;20067;-67
2022/10/13 13:09:26;;;;;;;11.02;3.42;;;;;;;;;;5055437;27;20655;-66
2022/10/13 13:12:08;;;;;;;6.43;1.60;;;;;;;;;;5053456;27;20041;-65
2022/10/13 13:14:36;;;;;;;3.60;1.10;;;;;;;;;;5055716;27;20044;-65
2022/10/13 13:17:06;;;;;;;6.22;1.20;;;;;;;;;;5056779;27;20124;-65
2022/10/13 13:19:33;;;;;;;6.15;1.50;;;;;;;;;;5055410;27;20151;-64
2022/10/13 13:22:00;;;;;;;3.65;1.27;;;;;;;;;;5056671;27;20037;-65
2022/10/13 13:24:27;;;;;;;4.20;1.40;;;;;;;;;;5055066;27;20063;-65
2022/10/13 13:26:56;;;;;;;7.55;1.70;;;;;;;;;;5056053;27;20130;-64
2022/10/13 13:29:23;;;;;;;5.95;1.50;;;;;;;;;;5053936;27;20032;-63
2022/10/13 13:31:49;;;;;;;6.40;1.50;;;;;;;;;;5044016;28;20040;-65
2022/10/13 13:34:16;;;;;;;3.92;1.27;;;;;;;;;;5052569;28;20056;-65
2022/10/13 13:36:43;;;;;;;6.13;1.60;;;;;;;;;;5054390;27;20086;-64
2022/10/13 13:39:18;;;;;;;6.28;1.70;;;;;;;;;;5055085;27;20050;-66
2022/10/13 13:41:45;;;;;;;7.20;1.73;;;;;;;;;;5070836;27;20123;-65
2022/10/13 13:44:12;;;;;;;12.85;1.75;;;;;;;;;;5063172;27;20339;-65
2022/10/13 13:46:40;;;;;;;6.20;1.60;;;;;;;;;;5065096;27;20443;-65
2022/10/13 13:49:09;;;;;;;9.20;2.03;;;;;;;;;;5069343;27;20037;-65
2022/10/13 13:51:35;;;;;;;9.20;1.88;;;;;;;;;;5054569;27;20049;-65
2022/10/13 13:54:02;;;;;;;6.50;1.95;;;;;;;;;;5056737;28;20175;-64
2022/10/13 13:56:28;;;;;;;9.23;1.90;;;;;;;;;;5054984;28;20040;-66
2022/10/13 13:58:55;;;;;;;9.10;2.10;;;;;;;;;;5055013;28;20066;-65
2022/10/13 14:01:22;;;;;;;5.88;1.88;;;;;;;;;;5054059;28;20834;-65
2022/10/13 14:03:49;;;;;;;9.07;1.63;;;;;;;;;;5050179;28;20083;-66
2022/10/13 14:06:20;;;;;;;6.25;2.10;;;;;;;;;;5051691;28;20037;-66
2022/10/13 14:08:47;;;;;;;7.90;1.95;;;;;;;;;;5083577;28;20186;-66
2022/10/13 14:11:14;;;;;;;7.43;2.05;;;;;;;;;;5053822;28;20382;-65
2022/10/13 14:13:40;;;;;;;5.88;1.98;;;;;;;;;;5055197;28;20041;-67
2022/10/13 14:16:07;;;;;;;6.15;1.95;;;;;;;;;;5054476;28;20033;-65
2022/10/13 14:18:34;;;;;;;6.80;2.05;;;;;;;;;;5054509;28;20093;-66
2022/10/13 14:21:05;;;;;;;7.30;2.05;;;;;;;;;;5055415;28;20038;-67
2022/10/13 14:23:32;;;;;;;7.93;1.70;;;;;;;;;;5054616;28;20063;-66
2022/10/13 14:25:59;;;;;;;4.60;1.67;;;;;;;;;;5054548;28;20036;-67
2022/10/13 14:28:25;;;;;;;9.52;1.95;;;;;;;;;;5054274;28;20047;-65
2022/10/13 14:30:52;;;;;;;6.55;1.80;;;;;;;;;;5054445;28;20048;-66
2022/10/13 14:33:19;;;;;;;11.50;2.28;;;;;;;;;;5055891;28;20044;-66
2022/10/13 14:35:45;;;;;;;9.15;1.85;;;;;;;;;;5053564;28;20047;-67
2022/10/13 14:38:12;;;;;;;16.98;2.40;;;;;;;;;;5055205;28;20122;-66
2022/10/13 14:40:42;;;;;;;13.45;2.70;;;;;;;;;;5054364;28;20942;-67
2022/10/13 14:43:08;;;;;;;7.38;2.00;;;;;;;;;;5057604;28;20416;-66
2022/10/13 14:45:35;;;;;;;9.07;2.28;;;;;;;;;;5057288;28;20039;-67
2022/10/13 14:48:02;;;;;;;7.32;1.70;;;;;;;;;;5058723;28;20348;-67
2022/10/13 14:50:28;;;;;;;6.03;1.65;;;;;;;;;;5057706;28;20037;-66
2022/10/13 14:52:55;;;;;;;7.68;2.60;;;;;;;;;;5058956;28;20043;-68
2022/10/13 14:55:21;;;;;;;20.58;2.78;;;;;;;;;;5057562;28;20516;-69